Time;durP1;ratioP1;P1;durP2;ratioP2;P2;SDS_P1;SDS_P2;PMS_P1;PMS_P2;Temp;Humidity;BMP_temperature;BMP_pressure;BME280_temperature;BME280_humidity;BME280_pressure;Samples;Min_cycle;Max_cycle;Signal;HPM_P1;HPM_P2
2023/10/18 00:01:04;;;;;;;5.40;3.47;;;14.50;99.90;;;;;;1904221;75;21478;-86
2023/10/18 00:03:57;;;;;;;4.45;3.52;;;14.50;99.90;;;;;;1904392;75;21542;-86
2023/10/18 00:06:49;;;;;;;3.65;3.10;;;14.50;99.90;;;;;;1904220;75;21595;-86
2023/10/18 00:09:45;;;;;;;6.30;3.10;;;14.50;99.90;;;;;;1904314;75;21091;-85
2023/10/18 00:12:37;;;;;;;4.55;2.80;;;14.40;99.90;;;;;;1904250;75;21095;-85
2023/10/18 00:15:31;;;;;;;4.50;2.83;;;14.60;99.90;;;;;;1904485;75;21091;-85
2023/10/18 00:18:21;;;;;;;4.58;2.98;;;14.50;99.90;;;;;;1904172;75;21095;-86
2023/10/18 00:21:13;;;;;;;4.30;2.70;;;14.50;99.90;;;;;;1903757;75;21161;-85
2023/10/18 00:24:06;;;;;;;4.95;2.72;;;14.50;99.90;;;;;;1903734;74;21631;-85
2023/10/18 00:26:58;;;;;;;4.35;2.62;;;14.60;99.90;;;;;;1903788;75;21105;-85
2023/10/18 00:29:54;;;;;;;3.55;3.00;;;14.70;99.90;;;;;;1904021;75;21106;-86
2023/10/18 00:32:46;;;;;;;3.42;2.47;;;14.70;99.90;;;;;;1895270;75;21106;-86
2023/10/18 00:35:40;;;;;;;4.87;2.90;;;14.60;99.90;;;;;;1872073;77;21188;-86
2023/10/18 00:38:32;;;;;;;3.62;2.90;;;14.70;99.90;;;;;;1872480;75;21248;-85
2023/10/18 00:41:32;;;;;;;3.85;2.60;;;14.70;99.90;;;;;;1872012;75;21087;-86
2023/10/18 00:44:17;;;;;;;3.45;2.52;;;14.60;99.90;;;;;;1881439;75;21149;-86
2023/10/18 00:47:13;;;;;;;3.80;2.70;;;14.60;99.90;;;;;;1890198;75;21118;-85
2023/10/18 00:50:06;;;;;;;5.47;2.83;;;14.60;99.90;;;;;;1892327;75;21753;-86
2023/10/18 00:52:57;;;;;;;4.08;2.50;;;14.60;99.90;;;;;;1897055;75;21087;-86
2023/10/18 00:56:17;;;;;;;3.65;2.40;;;14.60;99.90;;;;;;1883928;75;21091;-85
2023/10/18 00:59:26;;;;;;;3.50;2.60;;;14.60;99.90;;;;;;1901870;75;21103;-86
2023/10/18 01:02:13;;;;;;;3.10;2.80;;;14.60;99.90;;;;;;1892408;75;21090;-86
2023/10/18 01:05:09;;;;;;;2.87;2.57;;;14.70;99.90;;;;;;1904085;75;21083;-86
2023/10/18 01:08:06;;;;;;;3.83;2.72;;;14.60;99.90;;;;;;1902455;75;21794;-86
2023/10/18 01:10:54;;;;;;;3.25;2.10;;;14.60;99.90;;;;;;1867037;77;21483;-86
2023/10/18 01:13:47;;;;;;;4.90;2.77;;;14.60;99.90;;;;;;1904222;75;21209;-86
2023/10/18 01:16:38;;;;;;;4.12;2.50;;;14.50;99.90;;;;;;1904338;75;21091;-86
2023/10/18 01:19:30;;;;;;;3.42;2.85;;;14.50;99.90;;;;;;1904196;75;21104;-85
2023/10/18 01:22:23;;;;;;;3.47;2.58;;;14.60;99.90;;;;;;1904170;75;21157;-86
2023/10/18 01:25:15;;;;;;;4.87;2.50;;;14.60;99.90;;;;;;1909157;75;21240;-85
2023/10/18 01:28:07;;;;;;;3.75;2.55;;;14.70;99.90;;;;;;1909905;75;21136;-85
2023/10/18 01:30:58;;;;;;;3.72;2.17;;;14.70;99.90;;;;;;1909313;75;21221;-87
2023/10/18 01:33:59;;;;;;;4.45;2.60;;;14.60;99.90;;;;;;1909162;74;21161;-87
2023/10/18 01:37:05;;;;;;;2.90;2.60;;;14.70;99.90;;;;;;1910330;75;21095;-86
2023/10/18 01:39:56;;;;;;;2.67;2.30;;;14.70;99.90;;;;;;1875825;76;21136;-86
2023/10/18 01:42:56;;;;;;;5.03;2.37;;;14.70;99.90;;;;;;1840459;78;21641;-85
2023/10/18 01:45:48;;;;;;;3.05;2.47;;;14.70;99.90;;;;;;1903906;75;21132;-86
2023/10/18 01:48:38;;;;;;;3.77;2.30;;;14.60;99.90;;;;;;1910260;75;21044;-86
2023/10/18 01:51:30;;;;;;;3.83;2.27;;;14.60;99.90;;;;;;1884181;75;21153;-85
2023/10/18 01:54:25;;;;;;;5.20;2.70;;;14.60;99.90;;;;;;1910283;75;21082;-87
2023/10/18 01:57:17;;;;;;;4.05;2.50;;;14.70;99.90;;;;;;1881095;75;21087;-87
2023/10/18 02:00:18;;;;;;;4.72;2.15;;;14.70;99.90;;;;;;1865725;76;21160;-86
2023/10/18 02:03:11;;;;;;;2.58;2.22;;;14.60;99.90;;;;;;1896075;75;21179;-86
2023/10/18 02:06:06;;;;;;;4.72;2.20;;;14.50;99.90;;;;;;1910552;75;21098;-86
2023/10/18 02:08:58;;;;;;;3.00;2.10;;;14.50;99.90;;;;;;1903457;75;21167;-86
2023/10/18 02:11:49;;;;;;;3.25;2.10;;;14.60;99.90;;;;;;1908556;75;21166;-85
2023/10/18 02:14:41;;;;;;;4.35;2.20;;;14.70;99.90;;;;;;1895255;75;21103;-86
2023/10/18 02:17:33;;;;;;;3.85;2.10;;;14.60;99.90;;;;;;1869667;76;21098;-86
2023/10/18 02:20:28;;;;;;;2.92;2.12;;;14.50;99.90;;;;;;1884332;75;21103;-85
2023/10/18 02:23:21;;;;;;;3.47;2.00;;;14.60;99.90;;;;;;1909305;75;21629;-86
2023/10/18 02:26:30;;;;;;;4.15;1.92;;;14.60;99.90;;;;;;1876227;75;21549;-86
2023/10/18 02:29:12;;;;;;;3.33;2.17;;;14.60;99.90;;;;;;1891418;75;21099;-85
2023/10/18 02:32:21;;;;;;;2.47;1.90;;;14.60;99.90;;;;;;1879008;75;21090;-85
2023/10/18 02:34:58;;;;;;;3.65;2.30;;;14.50;99.90;;;;;;1890341;75;21144;-85
2023/10/18 02:37:51;;;;;;;2.87;1.98;;;14.60;99.90;;;;;;1907371;75;21164;-86
2023/10/18 02:40:43;;;;;;;4.50;2.20;;;14.60;99.90;;;;;;1891150;75;21060;-85
2023/10/18 02:43:45;;;;;;;3.10;1.90;;;14.60;99.90;;;;;;1892950;75;21127;-85
2023/10/18 02:46:33;;;;;;;2.80;2.10;;;14.60;99.90;;;;;;1874630;76;21099;-86
2023/10/18 02:49:27;;;;;;;3.02;1.82;;;14.70;99.90;;;;;;1836286;78;21097;-85
2023/10/18 02:52:19;;;;;;;3.08;2.00;;;14.60;99.90;;;;;;1872972;75;21098;-86
2023/10/18 02:55:18;;;;;;;3.80;2.00;;;14.70;99.90;;;;;;1889974;75;21140;-85
2023/10/18 02:58:06;;;;;;;4.25;2.02;;;14.70;99.90;;;;;;1890894;75;21145;-86
2023/10/18 03:01:05;;;;;;;3.47;1.90;;;14.70;99.90;;;;;;1903399;75;21165;-85
2023/10/18 03:03:55;;;;;;;3.75;2.20;;;14.70;99.90;;;;;;1906422;75;21091;-85
2023/10/18 03:06:46;;;;;;;3.58;1.72;;;14.70;99.90;;;;;;1872318;75;21176;-86
2023/10/18 03:09:40;;;;;;;3.60;2.10;;;14.70;99.90;;;;;;1891339;75;21048;-86
2023/10/18 03:12:36;;;;;;;3.25;1.75;;;14.80;99.90;;;;;;1900826;75;21099;-85
2023/10/18 03:15:28;;;;;;;4.12;2.42;;;14.80;99.90;;;;;;1885329;75;21044;-85
2023/10/18 03:18:24;;;;;;;2.40;2.00;;;14.80;99.90;;;;;;1899016;75;21099;-85
2023/10/18 03:21:21;;;;;;;3.05;2.12;;;14.80;99.90;;;;;;1878918;75;21603;-86
2023/10/18 03:24:12;;;;;;;3.92;2.00;;;14.80;99.90;;;;;;1902722;75;21059;-85
2023/10/18 03:27:08;;;;;;;4.10;2.15;;;14.90;99.90;;;;;;1880034;74;21695;-85
2023/10/18 03:30:17;;;;;;;4.03;2.12;;;14.90;99.90;;;;;;1879713;75;21276;-86
2023/10/18 03:33:07;;;;;;;2.83;1.87;;;14.90;99.90;;;;;;1841409;78;21121;-85
2023/10/18 03:36:17;;;;;;;2.85;1.50;;;14.80;99.90;;;;;;1890514;75;21098;-86
2023/10/18 03:39:10;;;;;;;2.45;1.62;;;14.90;99.90;;;;;;1877256;75;21197;-85
2023/10/18 03:42:00;;;;;;;2.92;1.40;;;14.80;99.90;;;;;;1872060;77;21106;-85
2023/10/18 03:52:17;;;;;;;3.02;1.70;;;14.90;99.90;;;;;;1901219;75;21114;-86
2023/10/18 03:55:16;;;;;;;3.52;1.62;;;14.80;99.90;;;;;;1886678;75;21168;-86
2023/10/18 03:58:08;;;;;;;3.17;1.77;;;14.80;99.90;;;;;;1873046;75;21164;-85
2023/10/18 04:01:01;;;;;;;2.60;1.72;;;14.80;99.90;;;;;;1872057;77;21106;-85
2023/10/18 04:03:53;;;;;;;5.65;2.27;;;14.80;99.90;;;;;;1856102;77;21078;-85
2023/10/18 04:06:49;;;;;;;2.22;1.57;;;14.80;99.90;;;;;;1886157;75;21083;-86
2023/10/18 04:09:53;;;;;;;2.85;1.92;;;14.80;99.90;;;;;;1904178;75;21550;-86
2023/10/18 04:12:45;;;;;;;4.35;2.00;;;14.70;99.90;;;;;;1872011;76;21488;-85
2023/10/18 04:15:38;;;;;;;1.82;1.65;;;14.70;99.90;;;;;;1872146;76;21063;-85
2023/10/18 04:18:41;;;;;;;3.08;1.87;;;14.60;99.90;;;;;;1893230;75;21106;-85
2023/10/18 04:21:35;;;;;;;2.85;2.10;;;14.80;99.90;;;;;;1893199;75;21126;-86
2023/10/18 04:24:28;;;;;;;5.12;1.90;;;14.70;99.90;;;;;;1872300;77;21129;-86
2023/10/18 04:27:20;;;;;;;3.75;2.12;;;14.70;99.90;;;;;;1836878;77;21649;-86
2023/10/18 04:30:16;;;;;;;3.37;2.00;;;14.70;99.90;;;;;;1875427;75;21119;-86
2023/10/18 04:33:24;;;;;;;3.42;1.90;;;14.60;99.90;;;;;;1890677;75;21132;-86
2023/10/18 04:36:10;;;;;;;4.53;2.20;;;14.50;99.90;;;;;;1903249;75;21165;-86
2023/10/18 04:39:07;;;;;;;5.80;2.17;;;14.50;99.90;;;;;;1903912;75;21067;-86
2023/10/18 04:41:55;;;;;;;9.48;2.60;;;14.60;99.90;;;;;;1902928;75;21095;-85
2023/10/18 04:44:49;;;;;;;4.80;2.08;;;14.60;99.90;;;;;;1880112;75;21075;-85
2023/10/18 04:47:41;;;;;;;5.22;2.02;;;14.60;99.90;;;;;;1887975;75;21136;-85
2023/10/18 04:50:34;;;;;;;3.75;2.02;;;14.60;99.90;;;;;;1882466;75;21112;-86
2023/10/18 04:53:25;;;;;;;3.20;2.05;;;14.60;99.90;;;;;;1879546;75;21102;-86
2023/10/18 04:56:16;;;;;;;3.95;1.80;;;14.60;99.90;;;;;;1836758;78;21191;-86
2023/10/18 04:59:10;;;;;;;2.95;1.85;;;14.70;99.90;;;;;;1872010;76;21067;-85
2023/10/18 05:02:05;;;;;;;6.17;2.00;;;14.70;99.90;;;;;;1857635;77;21047;-85
2023/10/18 05:04:57;;;;;;;2.70;1.87;;;14.60;99.90;;;;;;1904233;75;21115;-86
2023/10/18 05:11:25;;;;;;;3.42;2.22;;;14.60;99.90;;;;;;1853421;75;21256;-86
2023/10/18 05:14:35;;;;;;;6.25;2.50;;;14.60;99.90;;;;;;1897887;75;21550;-86
2023/10/18 05:17:17;;;;;;;3.37;2.30;;;14.60;99.90;;;;;;1872158;75;21102;-85
2023/10/18 05:20:21;;;;;;;5.47;2.83;;;14.70;99.90;;;;;;1872849;75;21216;-85
2023/10/18 05:23:04;;;;;;;;;;;14.70;99.90;;;;;;1906192;75;21074;-85
2023/10/18 05:26:08;;;;;;;4.87;2.60;;;14.70;99.90;;;;;;1887957;75;20203;-85
2023/10/18 05:28:52;;;;;;;4.85;2.47;;;14.70;99.90;;;;;;1866785;76;21608;-85
2023/10/18 05:32:06;;;;;;;4.25;2.42;;;14.60;99.90;;;;;;1882703;75;21082;-85
2023/10/18 05:34:50;;;;;;;2.98;2.35;;;14.70;99.90;;;;;;1875076;76;21099;-87
2023/10/18 05:37:50;;;;;;;4.53;3.08;;;14.60;99.90;;;;;;1901817;75;21098;-86
2023/10/18 05:40:56;;;;;;;5.65;2.30;;;14.70;99.90;;;;;;1838958;77;21168;-86
2023/10/18 05:43:43;;;;;;;5.33;2.67;;;14.60;99.90;;;;;;1878823;75;21110;-85
2023/10/18 05:46:38;;;;;;;4.75;2.67;;;14.60;99.90;;;;;;1901633;75;21091;-85
2023/10/18 05:49:34;;;;;;;5.28;2.70;;;14.60;99.90;;;;;;1871934;76;21118;-85
2023/10/18 05:55:44;;;;;;;3.05;2.60;;;14.70;99.90;;;;;;1865261;76;21047;-90
2023/10/18 05:58:38;;;;;;;4.33;2.60;;;14.70;99.90;;;;;;1906840;74;21133;-94
2023/10/18 06:01:31;;;;;;;4.35;2.98;;;14.70;99.90;;;;;;1905924;75;21651;-91
2023/10/18 06:07:22;;;;;;;6.85;2.87;;;14.70;99.90;;;;;;1975491;72;22110;-93
2023/10/18 06:10:17;;;;;;;4.15;3.05;;;14.80;99.90;;;;;;1950476;73;21621;-92
2023/10/18 06:13:21;;;;;;;4.97;2.98;;;14.80;99.90;;;;;;1950494;73;21145;-91
2023/10/18 06:16:19;;;;;;;4.35;2.20;;;15.00;99.90;;;;;;1949942;73;21167;-92
2023/10/18 06:19:13;;;;;;;6.45;2.87;;;14.90;99.90;;;;;;1918530;73;21514;-90
2023/10/18 06:22:15;;;;;;;5.05;2.83;;;14.90;99.90;;;;;;1941280;73;21628;-91
2023/10/18 06:25:31;;;;;;;3.90;2.67;;;14.90;99.90;;;;;;1918419;73;21162;-92
2023/10/18 06:28:19;;;;;;;5.92;2.60;;;15.00;99.90;;;;;;1950696;73;21158;-91
2023/10/18 06:31:14;;;;;;;3.98;2.67;;;15.00;99.90;;;;;;1950628;73;21143;-91
2023/10/18 06:34:15;;;;;;;4.25;2.67;;;15.10;99.90;;;;;;1950574;73;21438;-91
2023/10/18 06:37:07;;;;;;;7.08;2.65;;;15.10;99.90;;;;;;1919955;73;21142;-91
2023/10/18 06:40:01;;;;;;;4.37;2.55;;;15.10;99.90;;;;;;1916550;75;21136;-93
2023/10/18 06:43:20;;;;;;;3.52;2.22;;;15.10;99.90;;;;;;1917114;75;21047;-92
2023/10/18 06:46:26;;;;;;;4.22;2.60;;;15.30;99.90;;;;;;1916416;75;21059;-91
2023/10/18 06:49:17;;;;;;;6.47;3.20;;;15.30;99.90;;;;;;1916810;75;21110;-92
2023/10/18 06:52:09;;;;;;;8.50;2.85;;;15.30;99.90;;;;;;1919232;75;21138;-93
2023/10/18 06:55:16;;;;;;;3.92;3.00;;;15.30;99.90;;;;;;1920391;75;21192;-92
2023/10/18 06:58:41;;;;;;;5.80;2.95;;;15.50;99.90;;;;;;1916608;75;21095;-93
2023/10/18 07:01:14;;;;;;;6.42;2.47;;;15.50;99.90;;;;;;1923353;73;21135;-93
2023/10/18 07:04:27;;;;;;;4.05;2.02;;;15.50;99.90;;;;;;1915338;75;21180;-93
2023/10/18 07:07:39;;;;;;;3.70;2.30;;;15.60;99.90;;;;;;1893330;74;21357;-92
2023/10/18 07:10:53;;;;;;;4.97;2.95;;;15.70;99.90;;;;;;1920319;75;21113;-92
2023/10/18 07:13:33;;;;;;;5.15;2.15;;;15.80;99.90;;;;;;1909811;75;21099;-91
2023/10/18 07:16:38;;;;;;;6.05;2.37;;;15.90;99.90;;;;;;1916146;74;21206;-92
2023/10/18 07:19:56;;;;;;;4.83;2.70;;;15.90;99.90;;;;;;1933912;74;21139;-91
2023/10/18 07:22:55;;;;;;;6.65;2.20;;;15.90;99.90;;;;;;1916422;75;21114;-93
2023/10/18 07:25:46;;;;;;;4.17;2.20;;;16.00;99.90;;;;;;1947630;73;21158;-92
2023/10/18 07:28:40;;;;;;;6.60;2.30;;;16.00;99.90;;;;;;1904290;75;21124;-92
2023/10/18 07:31:53;;;;;;;5.10;2.30;;;16.10;99.90;;;;;;1916381;75;21620;-92
2023/10/18 07:34:44;;;;;;;6.65;2.60;;;16.00;99.90;;;;;;1903531;75;21122;-92
2023/10/18 07:37:49;;;;;;;4.17;2.47;;;16.10;99.90;;;;;;1916189;75;22123;-92
2023/10/18 07:45:45;;;;;;;3.40;2.50;;;16.10;99.90;;;;;;2013542;71;22308;-93
2023/10/18 07:48:45;;;;;;;3.95;2.72;;;16.00;99.90;;;;;;1972976;72;21123;-92
2023/10/18 07:51:43;;;;;;;4.40;2.80;;;16.10;99.90;;;;;;2031493;70;21085;-92
2023/10/18 07:54:35;;;;;;;3.72;1.70;;;16.20;99.90;;;;;;2031438;70;21130;-93
2023/10/18 07:57:33;;;;;;;3.58;2.02;;;16.20;99.90;;;;;;2031348;70;21054;-92
2023/10/18 08:00:26;;;;;;;3.80;1.95;;;16.40;99.90;;;;;;2031467;70;21055;-94
2023/10/18 08:03:18;;;;;;;3.72;1.98;;;16.60;99.90;;;;;;2031649;70;21102;-92
2023/10/18 08:06:26;;;;;;;4.75;2.20;;;16.80;99.90;;;;;;2031704;70;21146;-92
2023/10/18 08:09:20;;;;;;;4.67;2.52;;;16.80;99.90;;;;;;2031611;70;21058;-92
2023/10/18 08:38:12;;;;;;;5.00;2.58;;;16.90;99.90;;;;;;1966937;70;22177;-79
2023/10/18 08:43:54;;;;;;;6.67;3.22;;;17.30;99.90;;;;;;1957665;72;22253;-80
2023/10/18 08:46:55;;;;;;;6.28;2.27;;;17.40;99.90;;;;;;1917102;75;21151;-82
2023/10/18 08:49:51;;;;;;;3.72;1.95;;;17.50;99.90;;;;;;1916706;75;21257;-84
2023/10/18 08:52:47;;;;;;;5.15;2.10;;;17.60;99.90;;;;;;1917138;75;21149;-88
2023/10/18 08:55:51;;;;;;;5.80;2.50;;;17.80;99.90;;;;;;1916716;75;21071;-83
2023/10/18 08:58:42;;;;;;;4.60;2.12;;;17.90;99.90;;;;;;1916959;75;21181;-85
2023/10/18 09:01:35;;;;;;;5.72;2.30;;;18.00;99.90;;;;;;1917004;75;21050;-82
2023/10/18 09:04:31;;;;;;;5.22;2.45;;;18.00;99.90;;;;;;1917014;75;21110;-84
2023/10/18 09:07:43;;;;;;;6.83;3.90;;;18.10;99.90;;;;;;1917065;75;21062;-83
2023/10/18 09:14:08;;;;;;;4.17;2.27;;;18.10;99.90;;;;;;1917331;75;21111;-83
2023/10/18 09:17:10;;;;;;;5.22;2.40;;;18.00;99.90;;;;;;1917154;75;21168;-84
2023/10/18 09:20:15;;;;;;;5.65;2.20;;;18.10;99.90;;;;;;1916988;75;21076;-84
2023/10/18 09:23:01;;;;;;;4.25;2.50;;;18.20;99.90;;;;;;1916593;75;21586;-84
2023/10/18 09:26:04;;;;;;;;;;;18.20;99.90;;;;;;1919563;75;21098;-84
2023/10/18 09:28:48;;;;;;;6.10;3.00;;;18.20;99.90;;;;;;1887343;75;20194;-84
2023/10/18 09:31:54;;;;;;;6.33;3.15;;;18.20;99.90;;;;;;1891009;75;21082;-83
2023/10/18 09:34:46;;;;;;;4.67;2.60;;;18.10;99.90;;;;;;1914446;75;21146;-84
2023/10/18 09:37:38;;;;;;;8.05;2.83;;;18.30;99.90;;;;;;1915850;75;21175;-83
2023/10/18 09:40:29;;;;;;;5.33;2.87;;;18.30;99.90;;;;;;1916795;75;21184;-84
2023/10/18 09:43:21;;;;;;;5.10;2.62;;;18.50;99.90;;;;;;1898873;75;21324;-84
2023/10/18 09:46:13;;;;;;;9.53;3.25;;;18.60;99.90;;;;;;1826603;78;21218;-84
2023/10/18 09:49:09;;;;;;;7.22;2.95;;;18.70;99.90;;;;;;1899856;75;21098;-83
2023/10/18 09:52:03;;;;;;;7.65;2.77;;;18.70;99.90;;;;;;1827215;78;21578;-83
2023/10/18 09:54:59;;;;;;;5.70;2.45;;;18.80;99.90;;;;;;1899506;75;21178;-84
2023/10/18 09:58:02;;;;;;;6.62;2.40;;;19.00;99.90;;;;;;1826690;78;21149;-84
2023/10/18 10:03:35;;;;;;;7.10;2.67;;;19.60;99.90;;;;;;1957803;72;22335;-84
2023/10/18 10:06:28;;;;;;;6.42;2.62;;;19.90;99.90;;;;;;1917046;75;21152;-83
2023/10/18 10:09:28;;;;;;;8.05;2.52;;;20.10;99.90;;;;;;1916964;75;21134;-83
2023/10/18 10:12:13;;;;;;;8.95;2.70;;;20.40;99.90;;;;;;1917357;75;21098;-83
2023/10/18 10:15:13;;;;;;;5.85;2.22;;;20.70;99.90;;;;;;1917281;75;21581;-83
2023/10/18 10:18:01;;;;;;;4.05;1.60;;;20.90;99.90;;;;;;1917157;75;21130;-83
2023/10/18 10:20:55;;;;;;;5.37;1.60;;;21.20;99.90;;;;;;1916822;75;21052;-83
2023/10/18 10:23:49;;;;;;;8.03;2.65;;;21.60;99.90;;;;;;1917163;75;21153;-83
2023/10/18 10:26:47;;;;;;;6.65;3.00;;;21.90;99.90;;;;;;1916983;75;21161;-82
2023/10/18 10:29:37;;;;;;;7.15;2.90;;;22.00;99.90;;;;;;1916999;75;21122;-83
2023/10/18 10:32:31;;;;;;;6.47;2.90;;;22.10;99.90;;;;;;1916442;75;21122;-83
2023/10/18 10:35:27;;;;;;;4.92;2.05;;;22.10;99.90;;;;;;1917150;75;21234;-82
2023/10/18 10:38:21;;;;;;;4.00;2.05;;;22.20;99.90;;;;;;1917222;75;21099;-82
2023/10/18 10:41:20;;;;;;;6.58;2.20;;;22.10;99.90;;;;;;1898410;75;21168;-82
2023/10/18 10:44:38;;;;;;;7.35;2.10;;;22.10;99.90;;;;;;1917239;75;21636;-84
2023/10/18 10:47:32;;;;;;;6.75;2.20;;;21.90;99.90;;;;;;1917047;75;21149;-83
2023/10/18 10:50:45;;;;;;;5.50;2.20;;;22.20;99.90;;;;;;1916855;75;21047;-82
2023/10/18 10:53:44;;;;;;;5.17;2.20;;;22.40;99.90;;;;;;1916719;75;21107;-81
2023/10/18 10:56:50;;;;;;;5.47;1.92;;;22.50;99.90;;;;;;1916988;75;21087;-81
2023/10/18 10:59:52;;;;;;;6.15;2.10;;;22.60;99.90;;;;;;1917033;75;21534;-81
2023/10/18 11:02:45;;;;;;;5.20;1.95;;;22.70;99.90;;;;;;1909300;74;21152;-78
2023/10/18 11:05:39;;;;;;;11.75;2.00;;;22.70;99.90;;;;;;1926624;74;22181;-77
2023/10/18 11:08:30;;;;;;;9.23;2.10;;;22.80;99.90;;;;;;1905411;74;21078;-77
2023/10/18 11:11:22;;;;;;;7.42;2.05;;;22.90;99.90;;;;;;1857543;77;21163;-77
2023/10/18 11:14:18;;;;;;;5.53;2.02;;;23.00;99.90;;;;;;1915915;74;21085;-77
2023/10/18 11:17:23;;;;;;;6.03;1.80;;;23.00;99.90;;;;;;1932638;74;21553;-78
2023/10/18 11:20:29;;;;;;;7.33;2.00;;;23.20;99.90;;;;;;1932616;74;21591;-78
2023/10/18 11:23:33;;;;;;;5.28;1.70;;;23.50;99.90;;;;;;1932473;74;21074;-77
2023/10/18 11:26:26;;;;;;;6.60;1.82;;;23.90;99.90;;;;;;1932544;74;21094;-77
2023/10/18 11:29:24;;;;;;;6.37;2.05;;;24.30;99.90;;;;;;1932038;74;21118;-77
2023/10/18 11:32:19;;;;;;;8.03;1.80;;;24.50;99.90;;;;;;1932499;74;21219;-78
2023/10/18 11:35:18;;;;;;;7.50;2.10;;;24.70;99.90;;;;;;1931993;74;21113;-78
2023/10/18 11:38:19;;;;;;;8.53;2.20;;;24.90;99.90;;;;;;1932545;74;21165;-76
2023/10/18 11:41:14;;;;;;;8.98;2.30;;;25.00;99.90;;;;;;1932329;74;21098;-77
2023/10/18 11:44:07;;;;;;;5.17;1.70;;;25.00;99.90;;;;;;1932148;74;21086;-77
2023/10/18 11:47:08;;;;;;;7.60;2.20;;;25.10;99.90;;;;;;1932191;74;21142;-77
2023/10/18 11:49:57;;;;;;;;;;;25.10;99.90;;;;;;1934915;74;21090;-77
2023/10/18 11:52:49;;;;;;;7.20;1.92;;;25.20;99.90;;;;;;1932401;74;20448;-77
2023/10/18 11:55:55;;;;;;;5.30;1.62;;;25.20;99.90;;;;;;1932608;74;21171;-77
2023/10/18 11:59:01;;;;;;;9.83;2.40;;;25.30;99.90;;;;;;1932790;74;21134;-77
2023/10/18 12:02:04;;;;;;;10.03;2.22;;;25.30;99.90;;;;;;1922499;74;21573;-77
2023/10/18 12:04:53;;;;;;;9.18;1.98;;;25.30;99.90;;;;;;1899642;74;21120;-77
2023/10/18 12:07:45;;;;;;;9.80;2.10;;;25.30;99.90;;;;;;1824651;78;21167;-77
2023/10/18 12:10:36;;;;;;;7.30;2.45;;;25.30;99.90;;;;;;1920861;74;21089;-76
2023/10/18 12:13:28;;;;;;;9.20;2.40;;;25.30;99.90;;;;;;1932494;74;21109;-77
2023/10/18 12:16:22;;;;;;;10.03;2.20;;;25.20;99.90;;;;;;1929240;74;21128;-76
2023/10/18 12:19:14;;;;;;;9.85;2.30;;;25.20;99.90;;;;;;1826248;78;21109;-76
2023/10/18 12:22:07;;;;;;;9.88;2.83;;;25.20;99.90;;;;;;1899298;75;21154;-77
2023/10/18 12:25:06;;;;;;;9.60;2.77;;;25.10;99.90;;;;;;1899174;75;21104;-77
2023/10/18 12:28:00;;;;;;;6.75;1.80;;;25.10;99.90;;;;;;1898769;75;21166;-76
2023/10/18 12:30:55;;;;;;;7.87;2.12;;;25.10;99.90;;;;;;1899285;75;21066;-76
2023/10/18 12:33:50;;;;;;;7.97;1.95;;;25.10;99.90;;;;;;1899085;75;21133;-76
2023/10/18 12:36:49;;;;;;;9.23;2.20;;;25.10;99.90;;;;;;1927913;74;21098;-76
2023/10/18 12:39:35;;;;;;;6.17;2.08;;;25.30;99.90;;;;;;1931849;74;21655;-76
2023/10/18 12:42:33;;;;;;;6.72;2.15;;;25.30;99.90;;;;;;1931644;74;21180;-76
2023/10/18 12:45:28;;;;;;;7.83;2.50;;;25.40;99.90;;;;;;1909317;74;21110;-77
2023/10/18 12:48:23;;;;;;;11.33;2.20;;;25.50;99.90;;;;;;1932324;74;21050;-77
2023/10/18 12:51:17;;;;;;;13.03;2.52;;;25.50;99.90;;;;;;1913132;74;21039;-78
2023/10/18 12:54:09;;;;;;;11.12;2.30;;;25.70;99.90;;;;;;1834328;77;21235;-79
2023/10/18 12:57:09;;;;;;;10.08;2.60;;;25.90;99.90;;;;;;1899660;74;21592;-79
2023/10/18 13:00:13;;;;;;;9.25;2.40;;;26.00;99.90;;;;;;1919543;74;21248;-79
2023/10/18 13:03:21;;;;;;;7.80;2.05;;;26.00;99.90;;;;;;1867876;76;21113;-79
2023/10/18 13:06:15;;;;;;;7.60;1.90;;;26.00;99.90;;;;;;1923250;74;21253;-79
2023/10/18 13:09:16;;;;;;;8.85;2.42;;;25.90;99.90;;;;;;1922711;74;21152;-81
2023/10/18 13:12:17;;;;;;;7.87;2.30;;;25.80;99.90;;;;;;1882559;76;21190;-80
2023/10/18 13:15:10;;;;;;;7.92;1.90;;;25.90;99.90;;;;;;1906550;75;21094;-80
2023/10/18 13:18:04;;;;;;;9.20;2.08;;;26.00;99.90;;;;;;1915108;75;21636;-80
2023/10/18 13:20:55;;;;;;;7.50;2.17;;;25.90;99.90;;;;;;1901502;75;21121;-81
2023/10/18 13:23:49;;;;;;;9.68;2.20;;;25.90;99.90;;;;;;1883370;73;21083;-81
2023/10/18 13:26:43;;;;;;;8.15;1.98;;;25.90;99.90;;;;;;1898624;75;21160;-80
2023/10/18 13:29:35;;;;;;;7.05;2.35;;;26.00;99.90;;;;;;1916374;75;21130;-80
2023/10/18 13:32:29;;;;;;;11.93;2.27;;;26.20;99.90;;;;;;1916120;75;21559;-80
2023/10/18 13:35:23;;;;;;;9.25;1.85;;;26.30;99.90;;;;;;1915664;75;21582;-81
2023/10/18 13:38:19;;;;;;;9.58;1.85;;;26.20;99.90;;;;;;1916010;75;21126;-81
2023/10/18 13:41:12;;;;;;;7.80;2.02;;;26.20;99.90;;;;;;1915949;75;21112;-81
2023/10/18 13:44:04;;;;;;;4.97;2.08;;;26.40;99.90;;;;;;1914294;75;21084;-80
2023/10/18 13:46:57;;;;;;;5.33;1.80;;;26.40;99.90;;;;;;1901992;75;21078;-81
2023/10/18 13:49:49;;;;;;;7.30;2.35;;;26.50;99.90;;;;;;1916486;75;21067;-80
2023/10/18 13:52:41;;;;;;;6.70;1.98;;;26.50;99.90;;;;;;1916230;75;21597;-80
2023/10/18 13:55:33;;;;;;;9.15;2.20;;;26.50;99.90;;;;;;1916266;75;21111;-81
2023/10/18 13:58:29;;;;;;;11.22;2.10;;;26.40;99.90;;;;;;1916364;75;21205;-81
2023/10/18 14:01:22;;;;;;;6.60;2.08;;;26.60;99.90;;;;;;1883674;76;21136;-80
2023/10/18 14:04:14;;;;;;;7.20;2.08;;;26.60;99.90;;;;;;1897958;75;21102;-80
2023/10/18 14:07:05;;;;;;;9.60;2.10;;;26.60;99.90;;;;;;1924823;74;21115;-80
2023/10/18 14:09:57;;;;;;;10.13;2.45;;;26.70;99.90;;;;;;1870455;76;21154;-80
2023/10/18 14:12:49;;;;;;;8.88;2.25;;;26.80;99.90;;;;;;1907138;74;21046;-81
2023/10/18 14:15:43;;;;;;;8.60;1.87;;;26.80;99.90;;;;;;1857080;77;21182;-81
2023/10/18 14:18:34;;;;;;;9.00;2.50;;;26.90;99.90;;;;;;1916628;74;21116;-81
2023/10/18 14:21:29;;;;;;;9.40;2.05;;;27.10;99.90;;;;;;1844745;77;21144;-81
2023/10/18 14:24:25;;;;;;;7.42;2.30;;;26.80;99.90;;;;;;1904296;74;21042;-81
2023/10/18 14:27:14;;;;;;;5.85;1.57;;;26.60;99.90;;;;;;1843688;77;21117;-81
2023/10/18 14:30:06;;;;;;;8.23;1.75;;;26.60;99.90;;;;;;1901991;74;21113;-80
2023/10/18 14:32:59;;;;;;;10.05;1.95;;;26.60;99.90;;;;;;1861005;76;21413;-80
2023/10/18 14:35:52;;;;;;;7.37;2.55;;;26.60;99.90;;;;;;1928459;74;21530;-81
2023/10/18 14:38:44;;;;;;;7.97;1.82;;;26.60;99.90;;;;;;1856898;77;21153;-79
2023/10/18 14:41:37;;;;;;;7.30;1.90;;;26.50;99.90;;;;;;1914254;74;21165;-80
2023/10/18 14:44:28;;;;;;;9.23;4.05;;;26.40;99.90;;;;;;1856742;77;21112;-79
2023/10/18 14:47:20;;;;;;;6.40;1.62;;;26.30;99.90;;;;;;1925541;74;21038;-80
2023/10/18 14:50:12;;;;;;;8.85;1.90;;;26.20;99.90;;;;;;1864828;76;21108;-80
2023/10/18 14:53:04;;;;;;;6.78;1.65;;;26.30;99.90;;;;;;1919213;74;21171;-79
2023/10/18 14:55:55;;;;;;;3.95;1.37;;;26.40;99.90;;;;;;1857074;77;21156;-79
2023/10/18 14:58:49;;;;;;;9.10;1.62;;;26.40;99.60;;;;;;1899104;75;21634;-79
2023/10/18 15:01:41;;;;;;;4.42;1.82;;;26.50;99.30;;;;;;1930468;74;21043;-80
2023/10/18 15:04:33;;;;;;;5.53;1.72;;;26.50;99.20;;;;;;1899357;75;21105;-75
2023/10/18 15:07:24;;;;;;;5.08;2.22;;;26.50;99.20;;;;;;1899122;75;21134;-75
2023/10/18 15:10:16;;;;;;;7.95;2.10;;;26.50;99.50;;;;;;1912693;74;21094;-79
2023/10/18 15:13:11;;;;;;;9.20;2.52;;;26.40;99.80;;;;;;1899632;75;21118;-88
2023/10/18 15:16:06;;;;;;;7.72;1.72;;;26.20;99.60;;;;;;1900606;74;21102;-89
2023/10/18 15:18:57;;;;;;;7.87;1.85;;;26.10;99.30;;;;;;1929066;74;21526;-88
2023/10/18 15:21:49;;;;;;;6.08;1.57;;;26.00;99.10;;;;;;1855979;77;21114;-87
2023/10/18 15:24:41;;;;;;;7.22;1.92;;;25.90;99.10;;;;;;1932354;74;21592;-88
2023/10/18 15:27:32;;;;;;;5.35;1.60;;;25.80;98.90;;;;;;1855523;77;21196;-88
2023/10/18 15:30:24;;;;;;;5.17;1.98;;;25.80;99.20;;;;;;1932652;74;21127;-89
2023/10/18 15:33:19;;;;;;;6.10;1.65;;;25.70;98.40;;;;;;1855698;77;21183;-88
2023/10/18 15:36:17;;;;;;;6.53;1.60;;;25.50;98.50;;;;;;1932919;74;21508;-88
2023/10/18 15:39:10;;;;;;;5.47;1.60;;;25.50;98.50;;;;;;1855700;77;21537;-89
2023/10/18 15:42:01;;;;;;;8.45;1.80;;;25.50;98.30;;;;;;1932446;74;21545;-87
2023/10/18 15:44:55;;;;;;;6.60;1.95;;;25.40;98.30;;;;;;1883448;76;21098;-87
2023/10/18 15:47:46;;;;;;;7.53;1.85;;;25.30;98.60;;;;;;1917172;75;21139;-87
2023/10/18 15:50:39;;;;;;;8.23;1.85;;;25.20;98.70;;;;;;1892457;76;21152;-88
2023/10/18 15:53:30;;;;;;;6.83;1.92;;;25.20;98.80;;;;;;1925569;74;21095;-87
2023/10/18 15:56:24;;;;;;;7.78;2.67;;;25.10;98.90;;;;;;1925937;74;21228;-88
2023/10/18 15:59:18;;;;;;;5.12;1.60;;;25.10;99.00;;;;;;1926522;74;21126;-87
2023/10/18 16:02:12;;;;;;;6.50;1.70;;;25.10;99.10;;;;;;1925872;74;21164;-88
2023/10/18 16:05:04;;;;;;;6.25;1.72;;;25.00;99.20;;;;;;1925454;74;21109;-87
2023/10/18 16:07:56;;;;;;;8.43;1.65;;;25.00;99.20;;;;;;1906076;74;21081;-87
2023/10/18 16:10:47;;;;;;;7.95;2.20;;;25.10;99.20;;;;;;1847824;77;21657;-87